createdAt,value
2017-07-23T00:00:49.200Z,82.00
2017-07-23T00:03:17.624Z,81.80
2017-07-23T00:05:45.885Z,81.70
2017-07-23T00:08:14.126Z,82.50
2017-07-23T00:10:42.381Z,82.90
2017-07-23T00:13:11.404Z,81.40
2017-07-23T00:15:39.682Z,81.40
2017-07-23T00:18:07.965Z,82.50
2017-07-23T00:20:36.283Z,83.10
2017-07-23T00:23:04.511Z,83.90
2017-07-23T00:25:32.773Z,81.90
2017-07-23T00:28:02.083Z,82.80
2017-07-23T00:30:30.322Z,83.30
2017-07-23T00:32:59.372Z,82.90
2017-07-23T00:35:27.672Z,82.90
2017-07-23T00:37:55.922Z,83.30
2017-07-23T00:40:24.202Z,81.40
2017-07-23T00:42:52.468Z,80.40
2017-07-23T00:45:21.509Z,81.40
2017-07-23T00:47:49.776Z,81.30
2017-07-23T00:50:18.037Z,81.90
2017-07-23T00:52:46.335Z,81.00
2017-07-23T00:55:14.587Z,81.20
2017-07-23T00:57:42.840Z,82.30
2017-07-23T01:00:11.884Z,81.40
2017-07-23T01:02:40.670Z,81.40
2017-07-23T01:05:08.924Z,81.30
2017-07-23T01:07:37.158Z,81.90
2017-07-23T01:10:06.210Z,80.30
2017-07-23T01:12:34.438Z,80.30
2017-07-23T01:15:03.474Z,80.70
2017-07-23T01:17:31.755Z,80.50
2017-07-23T01:20:00.000Z,79.20
2017-07-23T01:22:29.036Z,81.40
2017-07-23T01:24:57.308Z,81.30
2017-07-23T01:27:25.542Z,82.50
2017-07-23T01:29:54.545Z,81.60
2017-07-23T01:32:22.818Z,81.60
2017-07-23T01:34:51.094Z,81.00
2017-07-23T01:37:19.348Z,82.50
2017-07-23T01:39:47.593Z,83.30
2017-07-23T01:42:15.843Z,83.70
2017-07-23T01:44:44.123Z,84.10
2017-07-23T01:47:12.358Z,82.10
2017-07-23T01:49:40.638Z,82.30
2017-07-23T01:52:09.711Z,83.20
2017-07-23T01:54:38.002Z,83.20
2017-07-23T01:57:07.067Z,84.10
2017-07-23T01:59:35.333Z,83.90
2017-07-23T02:02:03.622Z,83.80
2017-07-23T02:04:31.898Z,84.80
2017-07-23T02:07:00.187Z,83.70
2017-07-23T02:09:28.434Z,84.10
2017-07-23T02:11:56.827Z,83.20
2017-07-23T02:14:25.099Z,82.70
2017-07-23T02:16:53.351Z,80.70
2017-07-23T02:19:23.199Z,81.50
2017-07-23T02:21:51.457Z,81.40
2017-07-23T02:24:19.742Z,79.40
2017-07-23T02:26:47.986Z,81.90
2017-07-23T02:29:17.006Z,81.10
2017-07-23T02:31:45.292Z,81.00
2017-07-23T02:34:13.531Z,81.30
2017-07-23T02:36:42.566Z,82.20
2017-07-23T02:39:10.814Z,82.20
2017-07-23T02:41:39.824Z,80.90
2017-07-23T02:44:08.094Z,81.00
2017-07-23T02:46:36.354Z,80.20
2017-07-23T02:49:04.578Z,80.20
2017-07-23T02:51:32.876Z,80.50
2017-07-23T02:54:01.125Z,81.20
2017-07-23T02:56:29.395Z,80.70
2017-07-23T02:58:57.658Z,80.30
2017-07-23T03:01:26.665Z,79.80
2017-07-23T03:03:54.925Z,79.70
2017-07-23T03:06:23.209Z,80.30
2017-07-23T03:08:51.464Z,80.90
2017-07-23T03:11:20.501Z,81.80
2017-07-23T03:13:48.777Z,82.40
2017-07-23T03:16:17.025Z,82.00
2017-07-23T03:18:46.044Z,82.20
2017-07-23T03:21:14.297Z,82.20
2017-07-23T03:23:43.322Z,81.90
2017-07-23T03:26:11.606Z,81.90
2017-07-23T03:28:39.881Z,81.80
2017-07-23T03:31:08.123Z,82.00
2017-07-23T03:33:36.396Z,83.10
2017-07-23T03:36:05.416Z,83.30
2017-07-23T03:38:33.679Z,83.30
2017-07-23T03:41:01.946Z,83.50
2017-07-23T03:43:30.375Z,83.40
2017-07-23T03:45:58.601Z,82.80
2017-07-23T03:48:26.854Z,81.60
2017-07-23T03:50:55.117Z,81.40
2017-07-23T03:53:23.364Z,82.90
2017-07-23T03:55:51.624Z,82.40
2017-07-23T03:58:19.913Z,82.10
2017-07-23T04:00:48.193Z,81.60
2017-07-23T04:03:16.439Z,80.50
2017-07-23T04:05:45.451Z,80.20
2017-07-23T04:08:13.712Z,80.20
2017-07-23T04:10:42.744Z,81.20
2017-07-23T04:13:10.981Z,80.60
2017-07-23T04:15:39.297Z,80.00
2017-07-23T04:18:07.538Z,79.80
2017-07-23T04:20:36.545Z,79.20
2017-07-23T04:23:04.833Z,79.20
2017-07-23T04:25:33.046Z,79.30
2017-07-23T04:28:01.313Z,79.30
2017-07-23T04:30:29.569Z,79.40
2017-07-23T04:32:57.843Z,79.60
2017-07-23T04:35:26.073Z,79.10
2017-07-23T04:37:55.099Z,79.00
2017-07-23T04:40:23.349Z,78.90
2017-07-23T04:42:52.378Z,79.90
2017-07-23T04:45:20.683Z,79.90
2017-07-23T04:47:48.899Z,80.00
2017-07-23T04:50:17.913Z,81.30
2017-07-23T04:52:46.195Z,81.20
2017-07-23T04:55:14.474Z,81.10
2017-07-23T04:57:43.452Z,81.60
2017-07-23T05:00:12.446Z,80.50
2017-07-23T05:02:40.744Z,80.50
2017-07-23T05:05:08.965Z,79.80
2017-07-23T05:07:37.240Z,79.00
2017-07-23T05:10:05.477Z,79.20
2017-07-23T05:12:33.719Z,79.50
2017-07-23T05:15:02.738Z,76.90
2017-07-23T05:17:30.994Z,76.90
2017-07-23T05:19:59.275Z,75.90
2017-07-23T05:22:28.280Z,72.10
2017-07-23T05:24:57.266Z,71.80
2017-07-23T05:27:26.310Z,72.90
2017-07-23T05:29:54.546Z,72.70
2017-07-23T05:32:22.812Z,72.90
2017-07-23T05:34:51.082Z,70.70
2017-07-23T05:37:19.313Z,70.40
2017-07-23T05:39:47.593Z,71.60
2017-07-23T05:42:15.818Z,71.70
2017-07-23T05:44:44.842Z,74.30
2017-07-23T05:47:13.135Z,74.30
2017-07-23T05:49:41.376Z,74.30
2017-07-23T05:52:10.370Z,74.50
2017-07-23T05:54:38.628Z,74.50
2017-07-23T05:57:07.643Z,76.20
2017-07-23T05:59:35.905Z,75.60
2017-07-23T06:02:04.165Z,74.10
2017-07-23T06:04:32.427Z,76.90
2017-07-23T06:07:00.694Z,75.70
2017-07-23T06:09:28.957Z,75.00
2017-07-23T06:11:57.200Z,73.40
2017-07-23T06:14:25.464Z,72.90
2017-07-23T06:16:54.473Z,73.60
2017-07-23T06:19:23.466Z,73.00
2017-07-23T06:21:51.743Z,73.00
2017-07-23T06:24:20.766Z,72.10
2017-07-23T06:26:49.036Z,72.10
2017-07-23T06:29:17.280Z,70.80
2017-07-23T06:31:45.513Z,70.00
2017-07-23T06:34:13.778Z,70.00
2017-07-23T06:36:42.050Z,71.80
2017-07-23T06:39:10.287Z,71.50
2017-07-23T06:41:39.289Z,71.30
2017-07-23T06:44:08.306Z,71.60
2017-07-23T06:46:36.581Z,71.60
2017-07-23T06:49:05.601Z,70.80
2017-07-23T06:51:33.831Z,70.80
2017-07-23T06:54:02.050Z,71.10
2017-07-23T06:56:30.543Z,71.70
2017-07-23T06:58:58.791Z,70.70
2017-07-23T07:01:27.076Z,70.30
2017-07-23T07:03:55.467Z,68.90
2017-07-23T07:06:23.707Z,69.20
2017-07-23T07:08:52.733Z,69.70
2017-07-23T07:11:20.968Z,69.70
2017-07-23T07:13:49.980Z,68.50
2017-07-23T07:16:18.206Z,68.50
2017-07-23T07:18:46.474Z,70.00
2017-07-23T07:21:14.741Z,68.50
2017-07-23T07:23:42.965Z,69.20
2017-07-23T07:26:12.109Z,65.30
2017-07-23T07:28:40.322Z,65.30
2017-07-23T07:31:08.549Z,65.30
2017-07-23T07:33:36.811Z,64.00
2017-07-23T07:36:05.221Z,65.00
2017-07-23T07:38:33.483Z,63.80
2017-07-23T07:41:01.715Z,64.00
2017-07-23T07:43:29.985Z,63.00
2017-07-23T07:45:58.246Z,61.50
2017-07-23T07:48:26.482Z,61.60
2017-07-23T07:50:54.742Z,62.20
2017-07-23T07:53:23.730Z,60.80
2017-07-23T07:55:51.993Z,60.90
2017-07-23T07:58:20.238Z,60.50
2017-07-23T08:00:48.520Z,60.70
2017-07-23T08:03:16.783Z,60.10
2017-07-23T08:05:45.010Z,59.40
2017-07-23T08:08:14.062Z,60.70
2017-07-23T08:10:42.294Z,60.10
2017-07-23T08:13:10.567Z,60.40
2017-07-23T08:15:39.587Z,58.70
2017-07-23T08:18:07.879Z,58.60
2017-07-23T08:20:36.123Z,58.70
2017-07-23T08:23:04.419Z,59.00
2017-07-23T08:25:32.699Z,59.70
2017-07-23T08:28:01.054Z,59.70
2017-07-23T08:30:29.325Z,59.30
2017-07-23T08:32:58.303Z,59.30
2017-07-23T08:35:27.336Z,58.20
2017-07-23T08:37:55.591Z,58.10
2017-07-23T08:40:24.603Z,58.30
2017-07-23T08:42:52.874Z,58.20
2017-07-23T08:45:21.140Z,58.80
2017-07-23T08:47:50.172Z,58.20
2017-07-23T08:50:18.406Z,58.20
2017-07-23T08:52:47.465Z,58.50
2017-07-23T08:55:15.701Z,58.50
2017-07-23T08:57:43.974Z,58.50
2017-07-23T09:00:12.250Z,59.50
2017-07-23T09:02:40.523Z,59.30
2017-07-23T09:05:08.812Z,59.20
2017-07-23T09:07:37.049Z,59.00
2017-07-23T09:10:06.101Z,56.90
2017-07-23T09:12:34.346Z,56.90
2017-07-23T09:15:02.615Z,56.00
2017-07-23T09:17:30.914Z,58.60
2017-07-23T09:19:59.150Z,58.40
2017-07-23T09:22:27.401Z,59.30
2017-07-23T09:24:55.665Z,61.20
2017-07-23T09:27:23.913Z,61.80
2017-07-23T09:29:52.185Z,61.90
2017-07-23T09:32:21.179Z,60.10
2017-07-23T09:34:49.452Z,60.00
2017-07-23T09:37:18.473Z,60.00
2017-07-23T09:39:46.779Z,59.80
2017-07-23T09:42:15.078Z,60.30
2017-07-23T09:44:44.159Z,58.60
2017-07-23T09:47:12.385Z,58.60
2017-07-23T09:49:40.666Z,58.10
2017-07-23T09:52:08.907Z,57.60
2017-07-23T09:54:37.172Z,58.30
2017-07-23T09:57:05.463Z,59.60
2017-07-23T09:59:33.750Z,58.70
2017-07-23T10:02:02.249Z,60.60
2017-07-23T10:04:31.302Z,62.40
2017-07-23T10:06:59.547Z,61.70
2017-07-23T10:09:27.822Z,60.60
2017-07-23T10:11:56.129Z,60.80
2017-07-23T10:14:25.198Z,59.50
2017-07-23T10:16:53.430Z,59.00
2017-07-23T10:19:22.475Z,57.80
2017-07-23T10:21:50.760Z,57.80
2017-07-23T10:24:19.083Z,57.50
2017-07-23T10:26:48.132Z,56.40
2017-07-23T10:29:16.405Z,56.30
2017-07-23T10:31:44.682Z,57.00
2017-07-23T10:34:13.085Z,56.30
2017-07-23T10:36:41.378Z,56.50
2017-07-23T10:39:09.664Z,56.30
2017-07-23T10:41:37.942Z,56.70
2017-07-23T10:44:06.207Z,55.10
2017-07-23T10:46:34.492Z,55.00
2017-07-23T10:49:02.865Z,54.80
2017-07-23T10:51:31.145Z,54.50
2017-07-23T10:53:59.404Z,53.10
2017-07-23T10:56:27.677Z,50.90
2017-07-23T10:58:55.984Z,52.10
2017-07-23T11:01:26.299Z,52.00
2017-07-23T11:03:54.532Z,51.90
2017-07-23T11:06:23.749Z,51.80
2017-07-23T11:08:52.098Z,51.70
2017-07-23T11:11:20.362Z,50.10
2017-07-23T11:13:48.661Z,49.50
2017-07-23T11:16:17.005Z,49.20
2017-07-23T11:18:45.243Z,48.20
2017-07-23T11:21:13.520Z,46.90
2017-07-23T11:23:41.782Z,46.90
2017-07-23T11:26:10.005Z,48.50
2017-07-23T11:28:38.263Z,49.20
2017-07-23T11:31:06.534Z,49.90
2017-07-23T11:33:34.795Z,51.10
2017-07-23T11:36:03.054Z,51.80
2017-07-23T11:38:31.324Z,53.60
2017-07-23T11:40:59.631Z,54.40
2017-07-23T11:43:27.907Z,54.50
2017-07-23T11:45:56.175Z,54.20
2017-07-23T11:48:24.461Z,55.20
2017-07-23T11:50:52.706Z,53.80
2017-07-23T11:53:20.942Z,53.20
2017-07-23T11:55:50.011Z,53.10
2017-07-23T11:58:18.295Z,53.10
2017-07-23T12:00:46.554Z,52.40
2017-07-23T12:03:14.798Z,53.10
2017-07-23T12:05:43.026Z,53.80
2017-07-23T12:08:11.284Z,53.50
2017-07-23T12:10:39.517Z,53.60
2017-07-23T12:13:07.822Z,53.00
2017-07-23T12:15:36.092Z,52.40
2017-07-23T12:18:04.384Z,52.60
2017-07-23T12:20:33.476Z,51.40
2017-07-23T12:23:01.734Z,50.10
2017-07-23T12:25:30.035Z,49.40
2017-07-23T12:27:58.279Z,50.90
2017-07-23T12:30:27.266Z,50.50
2017-07-23T12:32:55.581Z,50.50
2017-07-23T12:35:23.856Z,51.30
2017-07-23T12:37:52.156Z,50.00
2017-07-23T12:40:20.393Z,49.70
2017-07-23T12:42:49.361Z,48.80
2017-07-23T12:45:18.380Z,48.60
2017-07-23T12:47:47.087Z,48.60
2017-07-23T12:50:16.075Z,46.10
2017-07-23T12:52:44.305Z,46.00
2017-07-23T12:55:12.572Z,46.70
2017-07-23T12:57:40.831Z,47.40
2017-07-23T13:00:09.506Z,48.20
2017-07-23T13:02:37.776Z,48.60
2017-07-23T13:05:06.048Z,48.70
2017-07-23T13:07:34.284Z,48.10
2017-07-23T13:10:02.872Z,47.60
2017-07-23T13:12:31.127Z,47.80
2017-07-23T13:15:00.396Z,48.30
2017-07-23T13:17:28.713Z,48.20
2017-07-23T13:19:56.998Z,47.80
2017-07-23T13:22:25.583Z,47.10
2017-07-23T13:24:54.230Z,47.70
2017-07-23T13:27:22.463Z,46.40
2017-07-23T13:29:50.732Z,44.80
2017-07-23T13:32:18.987Z,44.60
2017-07-23T13:34:47.262Z,44.20
2017-07-23T13:37:16.512Z,44.80
2017-07-23T13:39:45.503Z,44.90
2017-07-23T13:42:13.779Z,44.90
2017-07-23T13:44:42.018Z,44.50
2017-07-23T13:47:10.317Z,43.50
2017-07-23T13:49:39.343Z,43.00
2017-07-23T13:52:07.622Z,43.10
2017-07-23T13:54:36.638Z,43.80
2017-07-23T13:57:04.896Z,43.80
2017-07-23T13:59:33.517Z,43.60
2017-07-23T14:02:01.758Z,43.80
2017-07-23T14:04:30.003Z,44.50
2017-07-23T14:06:59.031Z,44.40
2017-07-23T14:09:27.437Z,44.50
2017-07-23T14:11:55.702Z,45.30
2017-07-23T14:14:23.939Z,45.30
2017-07-23T14:16:52.212Z,45.60
2017-07-23T14:19:21.225Z,46.00
2017-07-23T14:21:49.482Z,45.90
2017-07-23T14:24:17.778Z,45.90
2017-07-23T14:26:46.037Z,46.00
2017-07-23T14:29:15.061Z,45.90
2017-07-23T14:31:43.333Z,45.80
2017-07-23T14:34:12.598Z,45.40
2017-07-23T14:36:40.857Z,45.90
2017-07-23T14:39:09.169Z,45.80
2017-07-23T14:41:37.773Z,45.30
2017-07-23T14:44:06.020Z,45.30
2017-07-23T14:46:35.453Z,44.80
2017-07-23T14:49:03.737Z,44.70
2017-07-23T14:51:32.007Z,44.00
2017-07-23T14:54:00.315Z,44.60
2017-07-23T14:56:28.579Z,44.70
2017-07-23T14:58:56.851Z,45.20
2017-07-23T15:01:25.125Z,45.10
2017-07-23T15:03:53.398Z,44.90
2017-07-23T15:06:21.629Z,45.10
2017-07-23T15:08:50.722Z,44.70
2017-07-23T15:11:18.964Z,44.70
2017-07-23T15:13:47.306Z,45.30
2017-07-23T15:16:15.670Z,45.10
2017-07-23T15:18:43.995Z,43.70
2017-07-23T15:21:12.283Z,43.70
2017-07-23T15:23:40.561Z,44.00
2017-07-23T15:26:08.833Z,44.70
2017-07-23T15:28:37.126Z,44.60
2017-07-23T15:31:06.291Z,44.70
2017-07-23T15:33:34.694Z,44.70
2017-07-23T15:36:03.007Z,45.40
2017-07-23T15:38:31.263Z,45.00
2017-07-23T15:40:59.613Z,44.50
2017-07-23T15:43:27.859Z,45.30
2017-07-23T15:45:56.305Z,45.90
2017-07-23T15:48:24.755Z,46.20
2017-07-23T15:50:53.932Z,46.50
2017-07-23T15:53:23.313Z,45.70
2017-07-23T15:55:52.309Z,45.70
2017-07-23T15:58:21.407Z,45.50
2017-07-23T16:00:49.706Z,46.50
2017-07-23T16:03:17.985Z,46.30
2017-07-23T16:05:46.236Z,47.10
2017-07-23T16:08:14.847Z,47.00
2017-07-23T16:10:43.066Z,46.30
2017-07-23T16:13:11.379Z,47.00
2017-07-23T16:15:39.602Z,47.20
2017-07-23T16:18:07.887Z,47.00
2017-07-23T16:20:36.198Z,47.70
2017-07-23T16:23:04.470Z,48.00
2017-07-23T16:25:32.672Z,49.20
2017-07-23T16:28:00.984Z,50.00
2017-07-23T16:30:29.276Z,50.70
2017-07-23T16:32:58.489Z,51.60
2017-07-23T16:35:26.773Z,51.70
2017-07-23T16:37:55.854Z,53.10
2017-07-23T16:40:24.159Z,53.00
2017-07-23T16:42:52.460Z,53.40
2017-07-23T16:45:20.772Z,52.80
2017-07-23T16:47:49.057Z,52.10
2017-07-23T16:50:17.343Z,52.30
2017-07-23T16:52:45.612Z,51.40
2017-07-23T16:55:13.953Z,51.40
2017-07-23T16:57:42.243Z,51.40
2017-07-23T17:00:12.180Z,51.30
2017-07-23T17:02:41.627Z,51.30
2017-07-23T17:05:10.640Z,51.00
2017-07-23T17:07:38.915Z,51.00
2017-07-23T17:10:07.187Z,51.10
2017-07-23T17:12:36.228Z,51.40
2017-07-23T17:15:04.463Z,51.40
2017-07-23T17:17:32.767Z,50.90
2017-07-23T17:20:01.071Z,51.00
2017-07-23T17:22:29.384Z,50.70
2017-07-23T17:24:57.718Z,51.00
2017-07-23T17:27:26.008Z,50.50
2017-07-23T17:29:55.063Z,51.20
2017-07-23T17:32:24.685Z,51.20
2017-07-23T17:34:52.956Z,51.60
2017-07-23T17:37:21.255Z,51.60
2017-07-23T17:39:49.537Z,53.60
2017-07-23T17:42:17.861Z,53.40
2017-07-23T17:44:46.947Z,53.80
2017-07-23T17:47:15.959Z,55.10
2017-07-23T17:49:44.248Z,54.50
2017-07-23T17:52:12.596Z,54.80
2017-07-23T17:54:40.892Z,54.80
2017-07-23T17:57:09.190Z,55.00
2017-07-23T17:59:37.783Z,55.10
2017-07-23T18:02:06.092Z,54.80
2017-07-23T18:04:34.426Z,55.60
2017-07-23T18:07:02.719Z,54.90
2017-07-23T18:09:31.041Z,55.70
2017-07-23T18:12:00.835Z,55.90
2017-07-23T18:14:29.147Z,55.90
2017-07-23T18:16:58.170Z,55.00
2017-07-23T18:19:26.450Z,55.00
2017-07-23T18:21:54.753Z,55.50
2017-07-23T18:24:23.063Z,59.00
2017-07-23T18:26:52.115Z,64.30
2017-07-23T18:29:20.448Z,64.20
2017-07-23T18:31:49.498Z,66.90
2017-07-23T18:34:17.750Z,66.80
2017-07-23T18:36:46.064Z,68.10
2017-07-23T18:39:14.306Z,68.00
2017-07-23T18:41:42.618Z,68.70
2017-07-23T18:44:11.559Z,68.30
2017-07-23T18:46:40.057Z,67.60
2017-07-23T18:49:08.322Z,67.80
2017-07-23T18:51:36.585Z,67.40
2017-07-23T18:54:05.688Z,67.20
2017-07-23T18:56:34.166Z,67.20
2017-07-23T18:59:04.271Z,67.80
2017-07-23T19:01:33.374Z,67.70
2017-07-23T19:04:02.398Z,68.40
2017-07-23T19:06:30.763Z,69.10
2017-07-23T19:08:59.093Z,67.90
2017-07-23T19:11:27.415Z,68.60
2017-07-23T19:13:56.679Z,68.70
2017-07-23T19:16:25.754Z,68.90
2017-07-23T19:18:54.427Z,68.90
2017-07-23T19:21:22.728Z,69.00
2017-07-23T19:23:51.012Z,68.60
2017-07-23T19:26:19.455Z,68.20
2017-07-23T19:28:47.666Z,67.70
2017-07-23T19:31:15.955Z,66.70
2017-07-23T19:33:44.232Z,68.20
2017-07-23T19:36:13.296Z,68.70
2017-07-23T19:38:41.601Z,69.00
2017-07-23T19:41:09.845Z,69.50
2017-07-23T19:43:38.417Z,68.90
2017-07-23T19:46:06.705Z,68.90
2017-07-23T19:48:34.972Z,67.70
2017-07-23T19:51:03.365Z,68.70
2017-07-23T19:53:31.615Z,69.40
2017-07-23T19:55:59.921Z,69.20
2017-07-23T19:58:28.164Z,68.70
2017-07-23T20:00:57.185Z,68.90
2017-07-23T20:03:25.481Z,69.50
2017-07-23T20:05:53.737Z,68.80
2017-07-23T20:08:22.009Z,69.70
2017-07-23T20:10:50.286Z,68.50
2017-07-23T20:13:18.565Z,69.00
2017-07-23T20:15:46.927Z,69.70
2017-07-23T20:18:15.184Z,68.10
2017-07-23T20:20:43.457Z,68.40
2017-07-23T20:23:11.728Z,68.20
2017-07-23T20:25:39.974Z,68.00
2017-07-23T20:28:08.332Z,67.50
2017-07-23T20:30:36.691Z,67.30
2017-07-23T20:33:05.036Z,65.70
2017-07-23T20:35:33.279Z,65.20
2017-07-23T20:38:01.581Z,65.20
2017-07-23T20:40:29.844Z,65.70
2017-07-23T20:42:58.144Z,65.40
2017-07-23T20:45:26.408Z,65.60
2017-07-23T20:47:54.716Z,65.30
2017-07-23T20:50:23.028Z,65.70
2017-07-23T20:52:52.580Z,65.00
2017-07-23T20:55:20.897Z,64.70
2017-07-23T20:57:49.176Z,64.20
2017-07-23T21:00:17.415Z,64.70
2017-07-23T21:02:45.683Z,64.30
2017-07-23T21:05:13.948Z,64.10
2017-07-23T21:07:42.210Z,63.20
2017-07-23T21:10:11.611Z,65.40
2017-07-23T21:12:39.850Z,65.40
2017-07-23T21:15:08.098Z,66.70
2017-07-23T21:17:36.408Z,66.60
2017-07-23T21:20:05.411Z,66.00
2017-07-23T21:22:33.683Z,65.70
2017-07-23T21:25:02.730Z,68.90
2017-07-23T21:27:31.027Z,68.90
2017-07-23T21:29:59.313Z,67.60
2017-07-23T21:32:27.585Z,65.90
2017-07-23T21:34:55.816Z,66.00
2017-07-23T21:37:24.103Z,65.40
2017-07-23T21:39:53.183Z,64.70
2017-07-23T21:42:21.406Z,64.50
2017-07-23T21:44:50.467Z,66.80
2017-07-23T21:47:18.746Z,66.00
2017-07-23T21:49:47.021Z,65.80
2017-07-23T21:52:15.812Z,65.40
2017-07-23T21:54:44.115Z,64.20
2017-07-23T21:57:12.371Z,64.20
2017-07-23T21:59:40.607Z,64.30
2017-07-23T22:02:08.867Z,63.10
2017-07-23T22:04:37.873Z,63.20
2017-07-23T22:07:06.888Z,63.20
2017-07-23T22:09:35.171Z,63.20
2017-07-23T22:12:03.444Z,63.60
2017-07-23T22:14:31.722Z,64.70
2017-07-23T22:17:00.714Z,64.40
2017-07-23T22:19:28.995Z,64.40
2017-07-23T22:21:57.340Z,64.90
2017-07-23T22:24:26.338Z,64.80
2017-07-23T22:26:54.602Z,64.70
2017-07-23T22:29:23.634Z,66.10
2017-07-23T22:31:51.891Z,66.50
2017-07-23T22:34:20.913Z,67.80
2017-07-23T22:36:49.190Z,67.70
2017-07-23T22:39:17.437Z,67.90
2017-07-23T22:41:46.990Z,68.10
2017-07-23T22:44:15.671Z,68.10
2017-07-23T22:46:43.943Z,69.90
2017-07-23T22:49:12.198Z,69.90
2017-07-23T22:51:41.241Z,70.00
2017-07-23T22:54:09.476Z,70.00
2017-07-23T22:56:37.745Z,65.90
2017-07-23T22:59:06.004Z,65.10
2017-07-23T23:01:35.027Z,65.60
2017-07-23T23:04:04.007Z,66.10
2017-07-23T23:06:32.271Z,66.10
2017-07-23T23:09:00.514Z,64.50
2017-07-23T23:11:29.557Z,64.40
2017-07-23T23:13:57.851Z,64.30
2017-07-23T23:16:26.096Z,65.00
2017-07-23T23:18:55.153Z,68.30
2017-07-23T23:21:23.383Z,68.10
2017-07-23T23:23:51.670Z,68.10
2017-07-23T23:26:19.895Z,66.90
2017-07-23T23:28:48.146Z,64.90
2017-07-23T23:31:16.429Z,64.10
2017-07-23T23:33:44.721Z,64.80
2017-07-23T23:36:12.966Z,64.70
2017-07-23T23:38:41.221Z,66.20
2017-07-23T23:41:09.480Z,64.30
2017-07-23T23:43:38.480Z,67.90
2017-07-23T23:46:07.510Z,66.30
2017-07-23T23:48:35.762Z,66.30
2017-07-23T23:51:04.014Z,65.20
2017-07-23T23:53:32.261Z,67.00
2017-07-23T23:56:00.514Z,68.00
2017-07-23T23:58:28.771Z,67.70
